Portada
METAR-TAF:

METAR-TAF

Aeroports :

NWS Office

Majuro, Illes Marshall

latitud: 07-05N, longitud: 171-12E, altitud: 4 m

Observació

L'informe es va fer fa 2 hores i 9 minuts, a les 15:52 UTC
Vent 7 kt del Est
Temperatura 28°C
Humitat 74%
Pressió 1009 hPa
Visibilitat: 24.1 km
Escasses núvols a una alçada de 1500 ft
Núvols disperses a una alçada de 30000 ft

METAR: PKMR 261552Z 10007KT 15SM FEW015 SCT300 28/23 A2981 RMK SLP097 T02770233

Hora: 06:01 (18:01 UTC)


TAF: manca

Observacions i pronòstics meteorològics de més de 4000 aeroports (METAR i TAF).

Les estacions disponibles són els punts grocs i vermells al mapa.

Posi el ratolí al punt desitjat per veure el nom de l'estació.

Feu clic per veure les observacions i els pronòstics meteorològics.

Per canviar el mapa: feu clic els botons verds amb una creu de color negre per apropar; al botó verd amb un guió per allunyar la imatge; o en les fletxes verdes per a mapes adjacents.


METAR-TAF: